Harviell, Missouri
Current Conditions -  °F | °C
As of 1:15 PM on Tuesday 21 Oct 2014 (Local Time) from K4M9 Reporting Station
Haze Haze  
Wind Chill: 72°   Ceiling: Unl
Heat Index: 72°   Visibility: 1.2mi
Dew Point: 48°   Wind: 3mph
Humidity: 43%   Direction: 270°W
Pressure: 30.1"   Gusts: NA
Location:  36.66°N, 90.47°W
Report Text: K4M9 211815Z AUTO 27003KT 1 1/4SM HZ CLR 22/09 A3010 RMK AO2 VSBY 1/2V4
Loading
Personal Weather Stations






























Interactive Weather Map
Tropical Storm Tracking
New forecast layout! Learn more

10-Day Weather Forecast

Advertisements
Track Severe Weather on mobile